Davison Army Air Field
KDAA : now visible

Aeroporto :











RITROVATECI SU...

 
LOGIN :

Iscrizione | Disclaimer

   EN    FR    IT 

 









Sommario :    VFR   VFR Marginale   IFR   IFR Intensivo   IFR Molto Intensivo
Visibilità : 
Base nubi : 
>= 8 km
>= 3000ft
5 / 8 km
1000 / 3000 ft
1500m / 5 km
500 / 1000 ft
800 / 1500m
200 / 500 ft
< 800m
< 200 ft
Simboli :   Temporali  Nebbia  Neve Forte  Precipitazioni Forti  Vento > 20 kt






- Altitudine del aeroporto : 73 ft


KDAA - Davison Army Air Field

ULTIMO METAR :
  • 040156Z AUTO 36003KT 10SM FEW080 14/03 A2990 RMK AO2 SLP128 T01350030 $

METARs OBSOLETI :
  • 040056Z AUTO 34006KT 10SM BKN080 15/02 A2987 RMK AO2 SLP118 T01530018 $

TAF TAF KDAA
Valido dal 04 a 01 ore il 05 a 07 ore UTC


040100Z 0401/0507 35009KT 9999 BKN060 OVC080 510105 QNH2981INS
BECMG 0406/0407 34009KT 9999 BKN030 OVC050 QNH2994INS
BECMG 0418/0419 02009KT 9999 BKN040 OVC050 QNH3000INS TX16/0420Z TN08/0411Z LAST NO AMDS AFT 0401 NEXT 0409



MetMap, La meteo Aeronautica in un colpo d'occhio ! - Copyright ORBIFLY Dicembre 2007 - Disclaimer

ORBIFLY MET'MAP TEAM :

Programmazione e sviluppo : Alexandra Zaïnal
Concezione : Baudouin d'Aumeries
Aiuto per la programmazione : Marc-Olivier Méhu
Supporto tecnico e logistico : Manuel Goepfert
Aiuto per la traduzione : Arnaldo La Scala

Contatto : metmap@orbifly.com




FONTI E CREDITI :

   NOAA       Earth
Advisory